WetterOnline ( https://www.wetteronline.de )

Wetter aktuell Schmalkalden

Aktuelles Wetter: Meiningen (453m)

6-stündlich | Neueste Meldungen
Ortszeit Temperatur Wetter
So, 21.04. 14:00 3.0° C bewölkt
So, 21.04. 8:00 2.0° C bewölkt
So, 21.04. 2:00 2.4° C leichter Regen
Sa, 20.04. 20:00 5.4° C wolkig
Sa, 20.04. 14:00 5.8° C bewölkt
Sa, 20.04. 8:00 2.4° C bewölkt
Sa, 20.04. 2:00 3.4° C bewölkt
Fr, 19.04. 20:00 5.2° C bewölkt
Ortszeit Temperatur Wetter
So, 21.04. 15:00 3.2° C bedeckt
So, 21.04. 14:50 3.2° C bedeckt
So, 21.04. 14:40 3.2° C bewölkt
So, 21.04. 14:30 3.7° C bewölkt
So, 21.04. 14:20 3.7° C bewölkt
So, 21.04. 14:10 3.2° C bedeckt
So, 21.04. 14:00 3.0° C bewölkt
So, 21.04. 13:30 4.1° C bewölkt
So, 21.04. 13:00 3.0° C bewölkt
So, 21.04. 12:30 3.9° C bewölkt
So, 21.04. 12:00 3.9° C bewölkt
Ortszeit Relative Feuchte Sichtweite
So, 21.04. 14:00 77% 45 km
So, 21.04. 8:00 90% 40 km
So, 21.04. 2:00 93% 17 km
Sa, 20.04. 20:00 68% >70 km
Sa, 20.04. 14:00 50% >70 km
Sa, 20.04. 8:00 84% >70 km
Sa, 20.04. 2:00 87% >70 km
Fr, 19.04. 20:00 83% >70 km
Ortszeit Relative Feuchte Sichtweite
So, 21.04. 15:00 74% 55 km
So, 21.04. 14:50 74% -
So, 21.04. 14:40 73% -
So, 21.04. 14:30 75% 60 km
So, 21.04. 14:20 75% -
So, 21.04. 14:10 75% -
So, 21.04. 14:00 77% 45 km
So, 21.04. 13:30 75% 45 km
So, 21.04. 13:00 80% 30 km
So, 21.04. 12:30 78% 55 km
So, 21.04. 12:00 79% 50 km
Ortszeit Niederschlagsmenge Niederschlagsart
So, 21.04. 14:00 0.0 l/m2 in 6 Std. -
So, 21.04. 8:00 3 l/m2 in 12 Std. Schnee, Regen
So, 21.04. 2:00 1 l/m2 in 6 Std. Regen
Sa, 20.04. 20:00 0.5 l/m2 in 12 Std. -
Sa, 20.04. 14:00 0.5 l/m2 in 6 Std. Schnee, Regen
Sa, 20.04. 8:00 1 l/m2 in 12 Std. Regen
Sa, 20.04. 2:00 1 l/m2 in 6 Std. Regen
Fr, 19.04. 20:00 8 l/m2 in 12 Std. Regen
Ortszeit Niederschlagsmenge Niederschlagsart
So, 21.04. 15:00 0.0 l/m2 in 1 Std. -
So, 21.04. 14:50 keine Meldung -
So, 21.04. 14:40 keine Meldung -
So, 21.04. 14:30 0.0 l/m2 in 30 Min -
So, 21.04. 14:20 keine Meldung -
So, 21.04. 14:10 keine Meldung -
So, 21.04. 14:00 0.0 l/m2 in 1 Std. -
So, 21.04. 13:30 0.0 l/m2 in 30 Min -
So, 21.04. 13:00 0.0 l/m2 in 1 Std. -
So, 21.04. 12:30 0.0 l/m2 in 30 Min -
So, 21.04. 12:00 0.0 l/m2 in 1 Std. -
Ortszeit Stärke Spitze Richtung
km/h Bft. km/h Grad Sektor
So, 21.04. 14:00 28 4 44 20° N
So, 21.04. 8:00 11 2 18 10° N
So, 21.04. 2:00 4 1 29 130° SO
Sa, 20.04. 20:00 0 0 40 - -
Sa, 20.04. 14:00 18 3 43 330° NW
Sa, 20.04. 8:00 25 4 47 320° NW
Sa, 20.04. 2:00 17 3 39 310° NW
Fr, 19.04. 20:00 19 3 33 300° NW
Ortszeit Stärke Spitze Richtung
km/h Bft. km/h Grad Sektor
So, 21.04. 15:00 28 4 44 10° N
So, 21.04. 14:50 28 4 - 10° N
So, 21.04. 14:40 28 4 - 30° NO
So, 21.04. 14:30 29 5 43 20° N
So, 21.04. 14:20 29 5 - 20° N
So, 21.04. 14:10 29 5 - 10° N
So, 21.04. 14:00 28 4 44 20° N
So, 21.04. 13:30 24 4 35 10° N
So, 21.04. 13:00 25 4 40 20° N
So, 21.04. 12:30 25 4 36 20° N
So, 21.04. 12:00 22 4 32 10° N
Ortszeit Untergrenze Bedeckung Gattung
total tief tief mittel hoch
So, 21.04. 14:00 540 m 7/8 7/8 - - -
So, 21.04. 8:00 570 m 7/8 7/8 - - -
So, 21.04. 2:00 210 m 7/8 7/8 - - -
Sa, 20.04. 20:00 1470 m 7/8 2/8 - - -
Sa, 20.04. 14:00 1470 m 8/8 7/8 - - -
Sa, 20.04. 8:00 540 m 7/8 7/8 - - -
Sa, 20.04. 2:00 240 m 7/8 7/8 - - -
Fr, 19.04. 20:00 600 m 7/8 7/8 - - -
Ortszeit Bedeckungsgrad in Achtel und Wolkenuntergrenze
So, 21.04. 15:00 7(570m) 7(840m) 8(990m)
So, 21.04. 14:50 7(570m) 7(840m) 8(990m)
So, 21.04. 14:40 7
So, 21.04. 14:30 5(570m) 7(690m) 7(1350m)
So, 21.04. 14:20 5(570m) 7(690m) 7(1350m)
So, 21.04. 14:10 8
So, 21.04. 14:00 6(540m) 7(720m)
So, 21.04. 13:30 2(540m) 7(1110m) 7(1380m)
So, 21.04. 13:00 6(480m) 7(630m) 7(840m)
So, 21.04. 12:30 5(570m) 6(780m) 7(1020m)
So, 21.04. 12:00 2(450m) 6(630m) 7(1020m)
Ortszeit Luftdruck NN (hPa) Tendenz (hPa in 3 Std.)
So, 21.04. 14:00 1021 + 1,2
So, 21.04. 8:00 1018 + 0,5
So, 21.04. 2:00 1019 - 1,4
Sa, 20.04. 20:00 1019 - 0,1
Sa, 20.04. 14:00 1018 + 1,0
Sa, 20.04. 8:00 1015 + 3,1
Sa, 20.04. 2:00 1009 + 1,6
Fr, 19.04. 20:00 1005 - 0,2
Ortszeit Luftdruck NN (hPa) Tendenz (hPa in 3 Std.)
So, 21.04. 15:00 1021 + 1,4
So, 21.04. 14:50 1021 keine Meldung
So, 21.04. 14:40 1021 keine Meldung
So, 21.04. 14:30 1021 + 1,2
So, 21.04. 14:20 1021 keine Meldung
So, 21.04. 14:10 1021 keine Meldung
So, 21.04. 14:00 1021 + 1,2
So, 21.04. 13:30 1020 + 1,0
So, 21.04. 13:00 1020 + 1,4
So, 21.04. 12:30 1020 + 1,3
So, 21.04. 12:00 1020 + 1,5
Ortszeit Schneehöhe (cm)
So, 21.04. 14:00 0
So, 21.04. 8:00 0
So, 21.04. 2:00 0
Sa, 20.04. 20:00 0
Sa, 20.04. 14:00 0
Sa, 20.04. 8:00 0
Sa, 20.04. 2:00 0
Fr, 19.04. 20:00 0
Ortszeit Schneehöhe (cm)
So, 21.04. 15:00 0
So, 21.04. 14:50 0
So, 21.04. 14:40 -
So, 21.04. 14:30 0
So, 21.04. 14:20 0
So, 21.04. 14:10 -
So, 21.04. 14:00 0
So, 21.04. 13:30 0
So, 21.04. 13:00 0
So, 21.04. 12:30 0
So, 21.04. 12:00 0
Link zu dieser Seite / Seite empfehlen

Das Wetter in ...